Dodge City Regional Airport
KDDC : now visible

Airfield :











YOU CAN JOIN US ON...

 
LOGIN :

Register | Disclaimer

   EN    FR    IT 

 









Legend :    VFR   Marginal VFR   IFR   Intensive IFR   Very Intensive IFR
Visi :
Ceiling :
>= 8 km
>= 3000ft
5 to 8 km
1000 to 3000 ft
1500m to 5 km
500 to 1000 ft
800 to 1500m
200 to 500 ft
< 800m
< 200 ft
Symbols :   Thunderstorms  Fog  Heavy snow  Heavy precipitations  Wind > 20 kt






- Airport Elevation : 2594 ft
- IATA code : DDC


KDDC - Dodge City Regional

CURRENT METAR :
  • 111152Z AUTO 21007KT 10SM CLR 17/16 A3001 RMK AO2 SLP135 70022 T01720156 10194 20161 55002

EXPIRED METARs :
  • 111052Z AUTO 19006KT 10SM CLR 17/16 A3000 RMK AO2 SLP136 T01670156
  • 110952Z AUTO 19004KT 10SM CLR 17/16 A3001 RMK AO2 SLP141 T01670156

TAF KDDC
Valid from the 11 at 13:00 until the 12 at 12:00 UTC


111236Z 1113/1212 19012KT P6SM SKC
FM120000 15008KT P6SM BKN200
KZKC FIR / North America



MET'MAP, your aeronautical weather chart ! - Copyright ORBIFLY December 2007 - Disclaimer

ORBIFLY MET'MAP TEAM :

Programming & Development : Alexandra Zaïnal
Concept & original design : Baudouin d'Aumeries
Assistance for programming : Marc-Olivier Méhu
Technical & hardware support : Manuel Goepfert

Contact : metmap@orbifly.com




SOURCES & CREDITS :

   NOAA       Earth
Advisory